Погода Аркадияна неделю

Калифорния, США

01 - 07 сентября
  • 01сентября
    Сегодня
    +17°
    +30°
    Ясно и безоблачно
    ВремяПогодаТемператураВлажностьДавлениеВетер, м/сВероятность осадков
    02:00Ясно и безоблачно+18°C75 %748 мм1.2 м/с2 %
    05:00Ясно и безоблачно+16°C82 %748 мм0.6 м/с2 %
    08:00Ясно и безоблачно+19°C77 %749 мм0.3 м/с2 %
    11:00Ясно и безоблачно+24°C47 %749 мм2.2 м/с2 %
    14:00Ясно и безоблачно+29°C34 %748 мм3.4 м/с2 %
    17:00Ясно и безоблачно+28°C36 %747 мм4.1 м/с2 %
    20:00Ясно и безоблачно+23°C54 %748 мм3.1 м/с2 %
    23:00Ясно и безоблачно+20°C70 %749 мм1.7 м/с2 %
  • 02сентября
    Среда
    +18°
    +30°
    Ясно и безоблачно
    ВремяПогодаТемператураВлажностьДавлениеВетер, м/сВероятность осадков
    02:00Ясно и безоблачно+19°C74 %749 мм0.8 м/с2 %
    05:00Ясно и безоблачно+17°C79 %748 мм0.3 м/с2 %
    08:00Ясно и безоблачно+19°C69 %749 мм0.1 м/с2 %
    11:00Ясно и безоблачно+24°C46 %749 мм2.0 м/с2 %
    14:00Ясно и безоблачно+29°C30 %748 мм3.2 м/с2 %
    17:00Ясно и безоблачно+29°C31 %747 мм4.3 м/с2 %
    20:00Ясно и безоблачно+24°C47 %747 мм3.2 м/с2 %
    23:00Ясно и безоблачно+22°C55 %748 мм1.6 м/с2 %
  • 03сентября
    Четверг
    +18°
    +30°
    Ясно и безоблачно
    ВремяПогодаТемператураВлажностьДавлениеВетер, м/сВероятность осадков
    02:00Ясно и безоблачно+20°C68 %748 мм0.9 м/с2 %
    05:00Ясно и безоблачно+18°C71 %747 мм0.3 м/с2 %
    08:00Ясно и безоблачно+20°C73 %748 мм0.4 м/с2 %
    11:00Ясно и безоблачно+24°C46 %748 мм2.3 м/с2 %
    14:00Ясно и безоблачно+29°C37 %746 мм3.6 м/с2 %
    17:00Ясно и безоблачно+28°C42 %745 мм4.2 м/с2 %
    20:00Ясно и безоблачно+24°C59 %746 мм3.4 м/с2 %
    23:00Ясно и безоблачно+21°C68 %747 мм1.9 м/с2 %
  • 04сентября
    Пятница
    +18°
    +31°
    Ясно и безоблачно
    ВремяПогодаТемператураВлажностьДавлениеВетер, м/сВероятность осадков
    02:00Ясно и безоблачно+20°C79 %746 мм1.3 м/с2 %
    05:00Ясно и безоблачно+18°C87 %746 мм0.4 м/с2 %
    08:00Ясно и безоблачно+20°C76 %747 мм0.0 м/с2 %
    11:00Ясно и безоблачно+25°C49 %748 мм1.6 м/с2 %
    14:00Ясно и безоблачно+30°C32 %746 мм3.3 м/с2 %
    17:00Ясно и безоблачно+30°C31 %746 мм3.9 м/с2 %
    20:00Ясно и безоблачно+25°C58 %746 мм3.4 м/с2 %
    23:00Ясно и безоблачно+22°C70 %747 мм1.9 м/с2 %
  • 05сентября
    Суббота
    +21°
    +33°
    Ясно и безоблачно
    ВремяПогодаТемператураВлажностьДавлениеВетер, м/сВероятность осадков
    02:00Ясно и безоблачно+20°C82 %747 мм1.1 м/с3 %
    05:00Ясно и безоблачно+18°C84 %747 мм0.6 м/с7 %
    08:00Ясно и безоблачно+21°C68 %748 мм0.0 м/с12 %
    11:00Ясно и безоблачно+27°C36 %748 мм1.7 м/с15 %
    14:00Ясно и безоблачно+32°C22 %747 мм3.3 м/с20 %
    17:00Ясно и безоблачно+32°C23 %746 мм4.1 м/с25 %
    20:00Ясно и безоблачно+27°C50 %747 мм3.5 м/с20 %
    23:00Ясно и безоблачно+25°C61 %748 мм1.9 м/с22 %
  • 06сентября
    Воскресенье
    +19°
    +33°
    Ясно и безоблачно
    ВремяПогодаТемператураВлажностьДавлениеВетер, м/сВероятность осадков
    05:00Практически безоблачно+22°C77 %747 мм0.5 м/с34 %
    11:00Ясно и безоблачно+28°C48 %747 мм1.3 м/с40 %
    17:00Ясно и безоблачно+32°C47 %746 мм3.1 м/с41 %
    23:00Ясно и безоблачно+23°C53 %747 мм1.4 м/с27 %
  • 07сентября
    Понедельник
    +18°
    +32°
    Ясно и безоблачно
    ВремяПогодаТемператураВлажностьДавлениеВетер, м/сВероятность осадков
    05:00Ясно и безоблачно+20°C59 %746 мм1.4 м/с22 %
    11:00Ясно и безоблачно+28°C31 %747 мм2.2 м/с25 %
    17:00Ясно и безоблачно+30°C30 %745 мм3.0 м/с29 %
    23:00Ясно и безоблачно+21°C58 %746 мм1.4 м/с19 %
Мы используем cookies
Соглашаюсь